sensor_id;sensor_type;location;lat;lon;timestamp;temperature;humidity
20233;DHT22;37438;55.674;13.074;2023-03-03T00:03:00;3.60;99.90
20233;DHT22;37438;55.674;13.074;2023-03-03T00:06:09;3.70;99.90
20233;DHT22;37438;55.674;13.074;2023-03-03T00:09:14;3.60;99.90
20233;DHT22;37438;55.674;13.074;2023-03-03T00:12:28;3.90;99.90
20233;DHT22;37438;55.674;13.074;2023-03-03T00:15:35;3.90;99.90
20233;DHT22;37438;55.674;13.074;2023-03-03T00:18:42;3.90;99.90
20233;DHT22;37438;55.674;13.074;2023-03-03T00:21:49;3.80;99.90
20233;DHT22;37438;55.674;13.074;2023-03-03T00:24:54;3.50;99.90
20233;DHT22;37438;55.674;13.074;2023-03-03T00:28:14;3.70;99.90
20233;DHT22;37438;55.674;13.074;2023-03-03T00:31:30;3.50;99.90
20233;DHT22;37438;55.674;13.074;2023-03-03T00:34:37;3.80;99.90
20233;DHT22;37438;55.674;13.074;2023-03-03T00:37:41;3.50;99.90
20233;DHT22;37438;55.674;13.074;2023-03-03T00:40:46;3.60;99.90
20233;DHT22;37438;55.674;13.074;2023-03-03T00:43:51;3.70;99.90
20233;DHT22;37438;55.674;13.074;2023-03-03T00:46:56;3.70;99.90
20233;DHT22;37438;55.674;13.074;2023-03-03T00:53:17;3.60;99.90
20233;DHT22;37438;55.674;13.074;2023-03-03T00:56:22;3.40;99.90
20233;DHT22;37438;55.674;13.074;2023-03-03T00:59:27;3.40;99.90
20233;DHT22;37438;55.674;13.074;2023-03-03T01:02:31;3.40;99.90
20233;DHT22;37438;55.674;13.074;2023-03-03T01:05:36;3.30;99.90
20233;DHT22;37438;55.674;13.074;2023-03-03T01:08:41;3.40;99.90
20233;DHT22;37438;55.674;13.074;2023-03-03T01:11:45;3.20;99.90
20233;DHT22;37438;55.674;13.074;2023-03-03T01:14:51;3.20;99.90
20233;DHT22;37438;55.674;13.074;2023-03-03T01:17:58;3.20;99.90
20233;DHT22;37438;55.674;13.074;2023-03-03T01:21:03;3.20;99.90
20233;DHT22;37438;55.674;13.074;2023-03-03T01:24:09;3.10;99.90
20233;DHT22;37438;55.674;13.074;2023-03-03T01:27:13;3.20;99.90
20233;DHT22;37438;55.674;13.074;2023-03-03T01:30:18;3.30;99.90
20233;DHT22;37438;55.674;13.074;2023-03-03T01:33:22;3.10;99.90
20233;DHT22;37438;55.674;13.074;2023-03-03T01:36:28;3.30;99.90
20233;DHT22;37438;55.674;13.074;2023-03-03T01:39:32;3.30;99.90
20233;DHT22;37438;55.674;13.074;2023-03-03T01:42:37;3.30;99.90
20233;DHT22;37438;55.674;13.074;2023-03-03T01:52:42;3.40;99.90
20233;DHT22;37438;55.674;13.074;2023-03-03T01:55:49;3.20;99.90
20233;DHT22;37438;55.674;13.074;2023-03-03T01:59:09;3.30;99.90
20233;DHT22;37438;55.674;13.074;2023-03-03T02:02:15;2.90;99.90
20233;DHT22;37438;55.674;13.074;2023-03-03T02:05:19;3.20;99.90
20233;DHT22;37438;55.674;13.074;2023-03-03T02:08:30;3.00;99.90
20233;DHT22;37438;55.674;13.074;2023-03-03T02:11:41;3.20;99.90
20233;DHT22;37438;55.674;13.074;2023-03-03T02:14:46;3.10;99.90
20233;DHT22;37438;55.674;13.074;2023-03-03T02:17:59;3.00;99.90
20233;DHT22;37438;55.674;13.074;2023-03-03T02:24:25;3.20;99.90
20233;DHT22;37438;55.674;13.074;2023-03-03T02:27:32;3.00;99.90
20233;DHT22;37438;55.674;13.074;2023-03-03T02:30:38;3.10;99.90
20233;DHT22;37438;55.674;13.074;2023-03-03T02:33:47;3.10;99.90
20233;DHT22;37438;55.674;13.074;2023-03-03T02:36:52;3.00;99.90
20233;DHT22;37438;55.674;13.074;2023-03-03T02:39:56;3.10;99.90
20233;DHT22;37438;55.674;13.074;2023-03-03T02:43:02;3.20;99.90
20233;DHT22;37438;55.674;13.074;2023-03-03T02:46:09;3.40;99.90
20233;DHT22;37438;55.674;13.074;2023-03-03T02:49:19;3.20;99.90
20233;DHT22;37438;55.674;13.074;2023-03-03T02:52:24;3.20;99.90
20233;DHT22;37438;55.674;13.074;2023-03-03T02:55:29;3.40;99.90
20233;DHT22;37438;55.674;13.074;2023-03-03T02:58:33;3.40;99.90
20233;DHT22;37438;55.674;13.074;2023-03-03T03:01:39;3.70;99.90
20233;DHT22;37438;55.674;13.074;2023-03-03T03:04:48;3.90;99.90
20233;DHT22;37438;55.674;13.074;2023-03-03T03:07:58;3.80;99.90
20233;DHT22;37438;55.674;13.074;2023-03-03T03:11:03;3.80;99.90
20233;DHT22;37438;55.674;13.074;2023-03-03T03:14:11;3.70;99.90
20233;DHT22;37438;55.674;13.074;2023-03-03T03:17:16;3.90;99.90
20233;DHT22;37438;55.674;13.074;2023-03-03T03:20:21;3.80;99.90
20233;DHT22;37438;55.674;13.074;2023-03-03T03:23:26;3.90;99.90
20233;DHT22;37438;55.674;13.074;2023-03-03T03:26:32;3.90;99.90
20233;DHT22;37438;55.674;13.074;2023-03-03T03:29:36;4.00;99.90
20233;DHT22;37438;55.674;13.074;2023-03-03T03:32:41;3.80;99.90
20233;DHT22;37438;55.674;13.074;2023-03-03T03:35:46;3.70;99.90
20233;DHT22;37438;55.674;13.074;2023-03-03T03:38:52;3.80;99.90
20233;DHT22;37438;55.674;13.074;2023-03-03T03:41:58;3.60;99.90
20233;DHT22;37438;55.674;13.074;2023-03-03T03:45:03;3.60;99.90
20233;DHT22;37438;55.674;13.074;2023-03-03T03:48:08;3.60;99.90
20233;DHT22;37438;55.674;13.074;2023-03-03T03:51:12;3.60;99.90
20233;DHT22;37438;55.674;13.074;2023-03-03T03:54:18;3.70;99.90
20233;DHT22;37438;55.674;13.074;2023-03-03T03:57:22;3.60;99.90
20233;DHT22;37438;55.674;13.074;2023-03-03T04:00:30;3.60;99.90
20233;DHT22;37438;55.674;13.074;2023-03-03T04:03:36;3.70;99.90
20233;DHT22;37438;55.674;13.074;2023-03-03T04:06:45;3.50;99.90
20233;DHT22;37438;55.674;13.074;2023-03-03T04:09:50;3.40;99.90
20233;DHT22;37438;55.674;13.074;2023-03-03T04:12:56;3.20;99.90
20233;DHT22;37438;55.674;13.074;2023-03-03T04:16:02;3.30;99.90
20233;DHT22;37438;55.674;13.074;2023-03-03T04:19:06;3.10;99.90
20233;DHT22;37438;55.674;13.074;2023-03-03T04:22:13;3.20;99.90
20233;DHT22;37438;55.674;13.074;2023-03-03T04:25:20;3.10;99.90
20233;DHT22;37438;55.674;13.074;2023-03-03T04:28:25;3.10;99.90
20233;DHT22;37438;55.674;13.074;2023-03-03T04:31:31;3.00;99.90
20233;DHT22;37438;55.674;13.074;2023-03-03T04:34:36;2.80;99.90
20233;DHT22;37438;55.674;13.074;2023-03-03T04:37:41;2.70;99.90
20233;DHT22;37438;55.674;13.074;2023-03-03T04:40:47;2.70;99.90
20233;DHT22;37438;55.674;13.074;2023-03-03T04:43:54;2.60;99.90
20233;DHT22;37438;55.674;13.074;2023-03-03T04:46:59;2.60;99.90
20233;DHT22;37438;55.674;13.074;2023-03-03T04:50:04;2.70;99.90
20233;DHT22;37438;55.674;13.074;2023-03-03T04:53:09;2.90;99.90
20233;DHT22;37438;55.674;13.074;2023-03-03T04:56:14;2.90;99.90
20233;DHT22;37438;55.674;13.074;2023-03-03T04:59:19;2.90;99.90
20233;DHT22;37438;55.674;13.074;2023-03-03T05:02:24;2.90;99.90
20233;DHT22;37438;55.674;13.074;2023-03-03T05:05:29;3.00;99.90
20233;DHT22;37438;55.674;13.074;2023-03-03T05:08:33;2.80;99.90
20233;DHT22;37438;55.674;13.074;2023-03-03T05:11:38;2.70;99.90
20233;DHT22;37438;55.674;13.074;2023-03-03T05:14:42;2.80;99.90
20233;DHT22;37438;55.674;13.074;2023-03-03T05:17:47;2.80;99.90
20233;DHT22;37438;55.674;13.074;2023-03-03T05:20:51;2.60;99.90
20233;DHT22;37438;55.674;13.074;2023-03-03T05:23:56;2.80;99.90
20233;DHT22;37438;55.674;13.074;2023-03-03T05:27:00;2.80;99.90
20233;DHT22;37438;55.674;13.074;2023-03-03T05:30:07;2.70;99.90
20233;DHT22;37438;55.674;13.074;2023-03-03T05:33:13;3.00;99.90
20233;DHT22;37438;55.674;13.074;2023-03-03T05:36:18;3.40;99.90
20233;DHT22;37438;55.674;13.074;2023-03-03T05:39:23;3.50;99.90
20233;DHT22;37438;55.674;13.074;2023-03-03T05:42:27;3.30;99.90
20233;DHT22;37438;55.674;13.074;2023-03-03T05:45:32;3.20;99.90
20233;DHT22;37438;55.674;13.074;2023-03-03T05:48:38;3.30;99.90
20233;DHT22;37438;55.674;13.074;2023-03-03T05:51:42;3.60;99.90
20233;DHT22;37438;55.674;13.074;2023-03-03T05:54:47;3.40;99.90
20233;DHT22;37438;55.674;13.074;2023-03-03T05:57:51;3.40;99.90
20233;DHT22;37438;55.674;13.074;2023-03-03T06:00:56;3.60;99.90
20233;DHT22;37438;55.674;13.074;2023-03-03T06:04:00;3.40;99.90
20233;DHT22;37438;55.674;13.074;2023-03-03T06:07:05;3.50;99.90
20233;DHT22;37438;55.674;13.074;2023-03-03T06:10:10;3.50;99.90
20233;DHT22;37438;55.674;13.074;2023-03-03T06:13:17;3.60;99.90
20233;DHT22;37438;55.674;13.074;2023-03-03T06:16:21;3.50;99.90
20233;DHT22;37438;55.674;13.074;2023-03-03T06:19:26;3.40;99.90
20233;DHT22;37438;55.674;13.074;2023-03-03T06:22:30;3.10;99.90
20233;DHT22;37438;55.674;13.074;2023-03-03T06:25:35;3.00;99.90
20233;DHT22;37438;55.674;13.074;2023-03-03T06:28:39;3.10;99.90
20233;DHT22;37438;55.674;13.074;2023-03-03T06:31:44;2.90;99.90
20233;DHT22;37438;55.674;13.074;2023-03-03T06:34:48;2.90;99.90
20233;DHT22;37438;55.674;13.074;2023-03-03T06:37:53;2.90;99.90
20233;DHT22;37438;55.674;13.074;2023-03-03T06:40:57;3.00;99.90
20233;DHT22;37438;55.674;13.074;2023-03-03T06:44:05;2.90;99.90
20233;DHT22;37438;55.674;13.074;2023-03-03T06:47:09;2.90;99.90
20233;DHT22;37438;55.674;13.074;2023-03-03T06:50:17;3.20;99.90
20233;DHT22;37438;55.674;13.074;2023-03-03T06:53:24;3.40;99.90
20233;DHT22;37438;55.674;13.074;2023-03-03T06:56:33;3.60;99.90
20233;DHT22;37438;55.674;13.074;2023-03-03T06:59:40;3.70;99.90
20233;DHT22;37438;55.674;13.074;2023-03-03T07:02:52;3.80;99.90
20233;DHT22;37438;55.674;13.074;2023-03-03T07:06:01;3.70;99.90
20233;DHT22;37438;55.674;13.074;2023-03-03T07:09:24;3.90;99.90
20233;DHT22;37438;55.674;13.074;2023-03-03T07:12:29;3.80;99.90
20233;DHT22;37438;55.674;13.074;2023-03-03T07:15:34;3.90;99.90
20233;DHT22;37438;55.674;13.074;2023-03-03T07:21:44;4.00;99.90
20233;DHT22;37438;55.674;13.074;2023-03-03T07:24:53;3.90;99.90
20233;DHT22;37438;55.674;13.074;2023-03-03T07:28:35;4.00;99.90
20233;DHT22;37438;55.674;13.074;2023-03-03T07:31:40;4.20;99.90
20233;DHT22;37438;55.674;13.074;2023-03-03T07:34:47;4.10;99.90
20233;DHT22;37438;55.674;13.074;2023-03-03T07:37:52;4.30;99.90
20233;DHT22;37438;55.674;13.074;2023-03-03T07:40:58;4.30;99.90
20233;DHT22;37438;55.674;13.074;2023-03-03T07:44:05;4.50;99.90
20233;DHT22;37438;55.674;13.074;2023-03-03T07:47:25;4.50;99.90
20233;DHT22;37438;55.674;13.074;2023-03-03T07:50:30;4.60;99.90
20233;DHT22;37438;55.674;13.074;2023-03-03T07:53:35;4.70;99.90
20233;DHT22;37438;55.674;13.074;2023-03-03T07:56:41;4.70;99.90
20233;DHT22;37438;55.674;13.074;2023-03-03T07:59:51;4.90;99.90
20233;DHT22;37438;55.674;13.074;2023-03-03T08:03:11;4.90;99.90
20233;DHT22;37438;55.674;13.074;2023-03-03T08:06:43;5.20;99.90
20233;DHT22;37438;55.674;13.074;2023-03-03T08:09:57;5.20;99.90
20233;DHT22;37438;55.674;13.074;2023-03-03T08:13:15;5.30;99.90
20233;DHT22;37438;55.674;13.074;2023-03-03T08:16:29;5.50;99.90
20233;DHT22;37438;55.674;13.074;2023-03-03T08:19:33;5.40;99.90
20233;DHT22;37438;55.674;13.074;2023-03-03T08:22:38;5.40;99.90
20233;DHT22;37438;55.674;13.074;2023-03-03T08:25:43;5.50;99.90
20233;DHT22;37438;55.674;13.074;2023-03-03T08:28:47;5.30;99.90
20233;DHT22;37438;55.674;13.074;2023-03-03T08:31:52;5.30;99.90
20233;DHT22;37438;55.674;13.074;2023-03-03T08:34:56;5.40;99.90
20233;DHT22;37438;55.674;13.074;2023-03-03T08:38:01;5.40;99.90
20233;DHT22;37438;55.674;13.074;2023-03-03T08:41:06;5.60;99.90
20233;DHT22;37438;55.674;13.074;2023-03-03T08:44:10;5.60;99.90
20233;DHT22;37438;55.674;13.074;2023-03-03T08:47:15;5.60;99.90
20233;DHT22;37438;55.674;13.074;2023-03-03T08:50:19;5.40;99.90
20233;DHT22;37438;55.674;13.074;2023-03-03T08:53:24;5.10;99.90
20233;DHT22;37438;55.674;13.074;2023-03-03T08:56:28;5.40;99.90
20233;DHT22;37438;55.674;13.074;2023-03-03T08:59:33;5.60;99.90
20233;DHT22;37438;55.674;13.074;2023-03-03T09:02:42;5.20;99.90
20233;DHT22;37438;55.674;13.074;2023-03-03T09:05:46;5.30;99.90
20233;DHT22;37438;55.674;13.074;2023-03-03T09:08:51;5.50;99.90
20233;DHT22;37438;55.674;13.074;2023-03-03T09:12:13;5.50;99.90
20233;DHT22;37438;55.674;13.074;2023-03-03T09:15:26;5.60;99.90
20233;DHT22;37438;55.674;13.074;2023-03-03T09:18:36;5.80;99.90
20233;DHT22;37438;55.674;13.074;2023-03-03T09:21:40;5.50;99.90
20233;DHT22;37438;55.674;13.074;2023-03-03T09:24:47;5.40;99.90
20233;DHT22;37438;55.674;13.074;2023-03-03T09:27:53;5.40;99.90
20233;DHT22;37438;55.674;13.074;2023-03-03T09:31:00;5.10;99.90
20233;DHT22;37438;55.674;13.074;2023-03-03T09:37:28;5.20;99.90
20233;DHT22;37438;55.674;13.074;2023-03-03T09:40:50;5.30;99.90
20233;DHT22;37438;55.674;13.074;2023-03-03T09:54:45;5.10;99.90
20233;DHT22;37438;55.674;13.074;2023-03-03T09:58:17;5.10;99.90
20233;DHT22;37438;55.674;13.074;2023-03-03T10:12:26;5.40;99.90
20233;DHT22;37438;55.674;13.074;2023-03-03T10:19:35;5.60;99.90
20233;DHT22;37438;55.674;13.074;2023-03-03T10:22:49;5.60;99.90
20233;DHT22;37438;55.674;13.074;2023-03-03T10:30:12;5.60;99.90
20233;DHT22;37438;55.674;13.074;2023-03-03T10:40:15;5.40;99.90
20233;DHT22;37438;55.674;13.074;2023-03-03T11:05:16;5.10;99.90
20233;DHT22;37438;55.674;13.074;2023-03-03T11:08:41;5.30;99.90
20233;DHT22;37438;55.674;13.074;2023-03-03T11:11:52;5.20;99.90
20233;DHT22;37438;55.674;13.074;2023-03-03T11:22:32;5.40;99.90
20233;DHT22;37438;55.674;13.074;2023-03-03T11:36:08;5.10;99.90
20233;DHT22;37438;55.674;13.074;2023-03-03T11:39:19;5.20;99.90
20233;DHT22;37438;55.674;13.074;2023-03-03T11:45:53;5.10;99.90
20233;DHT22;37438;55.674;13.074;2023-03-03T11:49:50;5.10;99.90
20233;DHT22;37438;55.674;13.074;2023-03-03T11:55:51;5.00;99.90
20233;DHT22;37438;55.674;13.074;2023-03-03T11:59:02;5.30;99.90
20233;DHT22;37438;55.674;13.074;2023-03-03T12:05:49;5.30;99.90
20233;DHT22;37438;55.674;13.074;2023-03-03T12:12:47;5.30;99.90
20233;DHT22;37438;55.674;13.074;2023-03-03T12:16:03;5.30;99.90
20233;DHT22;37438;55.674;13.074;2023-03-03T12:22:30;5.00;99.90
20233;DHT22;37438;55.674;13.074;2023-03-03T12:25:44;5.00;99.90
20233;DHT22;37438;55.674;13.074;2023-03-03T12:29:06;5.00;99.90
20233;DHT22;37438;55.674;13.074;2023-03-03T12:32:48;4.90;99.90
20233;DHT22;37438;55.674;13.074;2023-03-03T12:36:24;4.80;99.90
20233;DHT22;37438;55.674;13.074;2023-03-03T12:46:50;4.80;99.90
20233;DHT22;37438;55.674;13.074;2023-03-03T12:50:13;4.90;99.90
20233;DHT22;37438;55.674;13.074;2023-03-03T12:53:45;4.90;99.90
20233;DHT22;37438;55.674;13.074;2023-03-03T12:56:54;4.60;99.90
20233;DHT22;37438;55.674;13.074;2023-03-03T13:00:21;4.40;99.90
20233;DHT22;37438;55.674;13.074;2023-03-03T13:10:34;4.50;99.90
20233;DHT22;37438;55.674;13.074;2023-03-03T13:14:16;4.40;99.90
20233;DHT22;37438;55.674;13.074;2023-03-03T13:21:03;4.90;99.90
20233;DHT22;37438;55.674;13.074;2023-03-03T13:28:00;4.80;99.90
20233;DHT22;37438;55.674;13.074;2023-03-03T13:31:33;4.70;99.90
20233;DHT22;37438;55.674;13.074;2023-03-03T13:38:19;5.00;99.90
20233;DHT22;37438;55.674;13.074;2023-03-03T13:41:29;4.90;99.90
20233;DHT22;37438;55.674;13.074;2023-03-03T13:44:50;5.10;99.90
20233;DHT22;37438;55.674;13.074;2023-03-03T13:51:38;5.40;99.90
20233;DHT22;37438;55.674;13.074;2023-03-03T14:02:19;5.70;99.90
20233;DHT22;37438;55.674;13.074;2023-03-03T14:05:58;6.00;99.90
20233;DHT22;37438;55.674;13.074;2023-03-03T14:12:50;6.70;99.90
20233;DHT22;37438;55.674;13.074;2023-03-03T14:16:10;6.50;99.90
20233;DHT22;37438;55.674;13.074;2023-03-03T14:19:27;6.50;99.90
20233;DHT22;37438;55.674;13.074;2023-03-03T14:22:55;7.30;99.90
20233;DHT22;37438;55.674;13.074;2023-03-03T14:26:09;7.30;99.90
20233;DHT22;37438;55.674;13.074;2023-03-03T14:32:32;6.90;99.90
20233;DHT22;37438;55.674;13.074;2023-03-03T14:42:36;6.50;99.90
20233;DHT22;37438;55.674;13.074;2023-03-03T14:45:43;6.50;99.90
20233;DHT22;37438;55.674;13.074;2023-03-03T14:48:51;6.60;99.90
20233;DHT22;37438;55.674;13.074;2023-03-03T14:55:35;6.80;99.90
20233;DHT22;37438;55.674;13.074;2023-03-03T14:58:41;6.80;99.90
20233;DHT22;37438;55.674;13.074;2023-03-03T15:01:46;7.10;99.90
20233;DHT22;37438;55.674;13.074;2023-03-03T15:05:16;7.50;99.90
20233;DHT22;37438;55.674;13.074;2023-03-03T15:08:31;7.20;99.90
20233;DHT22;37438;55.674;13.074;2023-03-03T15:11:37;6.80;99.90
20233;DHT22;37438;55.674;13.074;2023-03-03T15:14:45;6.80;99.90
20233;DHT22;37438;55.674;13.074;2023-03-03T15:18:10;6.90;99.90
20233;DHT22;37438;55.674;13.074;2023-03-03T15:21:27;6.70;99.90
20233;DHT22;37438;55.674;13.074;2023-03-03T15:31:49;7.70;99.90
20233;DHT22;37438;55.674;13.074;2023-03-03T15:35:09;7.90;99.90
20233;DHT22;37438;55.674;13.074;2023-03-03T15:42:56;7.30;99.90
20233;DHT22;37438;55.674;13.074;2023-03-03T15:46:15;7.20;99.90
20233;DHT22;37438;55.674;13.074;2023-03-03T15:56:18;7.50;99.90
20233;DHT22;37438;55.674;13.074;2023-03-03T15:59:30;7.30;99.90
20233;DHT22;37438;55.674;13.074;2023-03-03T16:02:54;7.90;99.90
20233;DHT22;37438;55.674;13.074;2023-03-03T16:06:10;7.80;99.90
20233;DHT22;37438;55.674;13.074;2023-03-03T16:16:12;6.10;99.90
20233;DHT22;37438;55.674;13.074;2023-03-03T16:19:48;5.70;99.90
20233;DHT22;37438;55.674;13.074;2023-03-03T16:26:56;5.40;99.90
20233;DHT22;37438;55.674;13.074;2023-03-03T16:37:06;5.40;99.90
20233;DHT22;37438;55.674;13.074;2023-03-03T16:40:26;5.40;99.90
20233;DHT22;37438;55.674;13.074;2023-03-03T16:44:38;5.30;99.90
20233;DHT22;37438;55.674;13.074;2023-03-03T16:51:05;5.40;99.90
20233;DHT22;37438;55.674;13.074;2023-03-03T16:54:33;5.40;99.90
20233;DHT22;37438;55.674;13.074;2023-03-03T17:01:34;5.40;99.90
20233;DHT22;37438;55.674;13.074;2023-03-03T17:08:34;5.40;99.90
20233;DHT22;37438;55.674;13.074;2023-03-03T17:15:06;5.50;99.90
20233;DHT22;37438;55.674;13.074;2023-03-03T17:26:24;5.70;99.90
20233;DHT22;37438;55.674;13.074;2023-03-03T17:32:56;5.70;99.90
20233;DHT22;37438;55.674;13.074;2023-03-03T17:36:40;5.70;99.90
20233;DHT22;37438;55.674;13.074;2023-03-03T17:40:16;5.70;99.90
20233;DHT22;37438;55.674;13.074;2023-03-03T17:43:33;5.60;99.90
20233;DHT22;37438;55.674;13.074;2023-03-03T17:46:56;5.60;99.90
20233;DHT22;37438;55.674;13.074;2023-03-03T18:00:29;5.70;99.90
20233;DHT22;37438;55.674;13.074;2023-03-03T18:04:01;5.90;99.90
20233;DHT22;37438;55.674;13.074;2023-03-03T18:18:09;5.90;99.90
20233;DHT22;37438;55.674;13.074;2023-03-03T18:24:52;6.10;99.90
20233;DHT22;37438;55.674;13.074;2023-03-03T18:31:18;6.10;99.90
20233;DHT22;37438;55.674;13.074;2023-03-03T18:34:39;6.20;99.90
20233;DHT22;37438;55.674;13.074;2023-03-03T18:37:44;6.20;99.90
20233;DHT22;37438;55.674;13.074;2023-03-03T18:44:01;6.20;99.90
20233;DHT22;37438;55.674;13.074;2023-03-03T18:47:08;6.20;99.90
20233;DHT22;37438;55.674;13.074;2023-03-03T18:53:27;6.00;99.90
20233;DHT22;37438;55.674;13.074;2023-03-03T18:56:44;6.00;99.90
20233;DHT22;37438;55.674;13.074;2023-03-03T19:00:07;6.10;99.90
20233;DHT22;37438;55.674;13.074;2023-03-03T19:09:48;5.90;99.90
20233;DHT22;37438;55.674;13.074;2023-03-03T19:12:56;5.90;99.90
20233;DHT22;37438;55.674;13.074;2023-03-03T19:16:09;5.80;99.90
20233;DHT22;37438;55.674;13.074;2023-03-03T19:19:16;5.70;99.90
20233;DHT22;37438;55.674;13.074;2023-03-03T19:22:24;5.60;99.90
20233;DHT22;37438;55.674;13.074;2023-03-03T19:25:29;5.60;99.90
20233;DHT22;37438;55.674;13.074;2023-03-03T19:32:47;5.50;99.90
20233;DHT22;37438;55.674;13.074;2023-03-03T19:36:07;5.40;99.90
20233;DHT22;37438;55.674;13.074;2023-03-03T19:49:33;5.40;99.90
20233;DHT22;37438;55.674;13.074;2023-03-03T19:56:20;5.30;99.90
20233;DHT22;37438;55.674;13.074;2023-03-03T20:16:42;5.30;99.90
20233;DHT22;37438;55.674;13.074;2023-03-03T20:23:28;5.10;99.90
20233;DHT22;37438;55.674;13.074;2023-03-03T20:36:25;5.10;99.90
20233;DHT22;37438;55.674;13.074;2023-03-03T20:56:52;5.00;99.90
20233;DHT22;37438;55.674;13.074;2023-03-03T21:03:42;5.00;99.90
20233;DHT22;37438;55.674;13.074;2023-03-03T21:06:49;5.00;99.90
20233;DHT22;37438;55.674;13.074;2023-03-03T21:10:16;5.00;99.90
20233;DHT22;37438;55.674;13.074;2023-03-03T21:13:33;5.00;99.90
20233;DHT22;37438;55.674;13.074;2023-03-03T21:16:40;5.00;99.90
20233;DHT22;37438;55.674;13.074;2023-03-03T21:19:45;5.00;99.90
20233;DHT22;37438;55.674;13.074;2023-03-03T21:22:50;4.90;99.90
20233;DHT22;37438;55.674;13.074;2023-03-03T21:25:56;4.90;99.90
20233;DHT22;37438;55.674;13.074;2023-03-03T21:29:01;4.90;99.90
20233;DHT22;37438;55.674;13.074;2023-03-03T21:32:08;4.90;99.90
20233;DHT22;37438;55.674;13.074;2023-03-03T21:35:20;4.90;99.90
20233;DHT22;37438;55.674;13.074;2023-03-03T21:38:35;5.00;99.90
20233;DHT22;37438;55.674;13.074;2023-03-03T21:41:58;4.90;99.90
20233;DHT22;37438;55.674;13.074;2023-03-03T21:45:13;4.90;99.90
20233;DHT22;37438;55.674;13.074;2023-03-03T21:48:18;5.00;99.90
20233;DHT22;37438;55.674;13.074;2023-03-03T21:51:23;4.90;99.90
20233;DHT22;37438;55.674;13.074;2023-03-03T21:54:27;4.90;99.90
20233;DHT22;37438;55.674;13.074;2023-03-03T21:57:32;4.90;99.90
20233;DHT22;37438;55.674;13.074;2023-03-03T22:00:38;4.90;99.90
20233;DHT22;37438;55.674;13.074;2023-03-03T22:03:43;4.90;99.90
20233;DHT22;37438;55.674;13.074;2023-03-03T22:06:48;4.90;99.90
20233;DHT22;37438;55.674;13.074;2023-03-03T22:09:53;4.90;99.90
20233;DHT22;37438;55.674;13.074;2023-03-03T22:12:58;4.90;99.90
20233;DHT22;37438;55.674;13.074;2023-03-03T22:16:02;4.80;99.90
20233;DHT22;37438;55.674;13.074;2023-03-03T22:19:08;4.90;99.90
20233;DHT22;37438;55.674;13.074;2023-03-03T22:22:12;4.90;99.90
20233;DHT22;37438;55.674;13.074;2023-03-03T22:25:17;4.90;99.90
20233;DHT22;37438;55.674;13.074;2023-03-03T22:28:21;4.80;99.90
20233;DHT22;37438;55.674;13.074;2023-03-03T22:31:26;4.80;99.90
20233;DHT22;37438;55.674;13.074;2023-03-03T22:34:30;4.80;99.90
20233;DHT22;37438;55.674;13.074;2023-03-03T22:37:34;4.90;99.90
20233;DHT22;37438;55.674;13.074;2023-03-03T22:40:39;4.90;99.90
20233;DHT22;37438;55.674;13.074;2023-03-03T22:43:44;4.90;99.90
20233;DHT22;37438;55.674;13.074;2023-03-03T22:46:48;4.80;99.90
20233;DHT22;37438;55.674;13.074;2023-03-03T22:49:52;4.80;99.90
20233;DHT22;37438;55.674;13.074;2023-03-03T22:52:57;4.80;99.90
20233;DHT22;37438;55.674;13.074;2023-03-03T22:56:01;4.70;99.90
20233;DHT22;37438;55.674;13.074;2023-03-03T22:59:06;4.70;99.90
20233;DHT22;37438;55.674;13.074;2023-03-03T23:02:10;4.80;99.90
20233;DHT22;37438;55.674;13.074;2023-03-03T23:05:14;4.80;99.90
20233;DHT22;37438;55.674;13.074;2023-03-03T23:08:19;4.80;99.90
20233;DHT22;37438;55.674;13.074;2023-03-03T23:11:24;4.70;99.90
20233;DHT22;37438;55.674;13.074;2023-03-03T23:14:30;4.70;99.90
20233;DHT22;37438;55.674;13.074;2023-03-03T23:17:34;4.80;99.90
20233;DHT22;37438;55.674;13.074;2023-03-03T23:20:39;4.80;99.90
20233;DHT22;37438;55.674;13.074;2023-03-03T23:23:49;4.80;99.90
20233;DHT22;37438;55.674;13.074;2023-03-03T23:26:53;4.90;99.90
20233;DHT22;37438;55.674;13.074;2023-03-03T23:30:01;4.80;99.90
20233;DHT22;37438;55.674;13.074;2023-03-03T23:33:05;4.80;99.90
20233;DHT22;37438;55.674;13.074;2023-03-03T23:36:09;4.80;99.90
20233;DHT22;37438;55.674;13.074;2023-03-03T23:39:14;4.70;99.90
20233;DHT22;37438;55.674;13.074;2023-03-03T23:42:19;4.70;99.90
20233;DHT22;37438;55.674;13.074;2023-03-03T23:45:24;4.70;99.90
20233;DHT22;37438;55.674;13.074;2023-03-03T23:48:29;4.70;99.90
20233;DHT22;37438;55.674;13.074;2023-03-03T23:51:33;4.70;99.90
20233;DHT22;37438;55.674;13.074;2023-03-03T23:54:38;4.80;99.90
20233;DHT22;37438;55.674;13.074;2023-03-03T23:57:42;4.80;99.90
